Hlavní strana
METAR-TAF:

METAR-TAF

Letiště :

Letiště Larnaka

Larnaka, Kypr

zeměpisná šířka: 34-53N, zeměpisná délka: 033-38E, výška: 2 m

Aktuální stav počasí

Zpráva byla vytvořena před 10 minutami, v 12:30 UTC
Jižní vítr 12 kt
Teplota 20°C
Vlhkost vzduchu 49%
Tlak 1015 hPa
Viditelnost 10 km a více
Skoro jasno ve výšce 3000 ft
Polojasno ve výšce 6000 ft

METAR: LCLK 221230Z 17012KT 9999 FEW030 SCT060 20/09 Q1015 NOSIG

Čas: 15:40 (12:40 UTC)

Předpověď počasí

Zpráva byla vytvořena před 1 hodinou a 10 minutami, v 11:30 UTC
Předpověď platná od 22 v 12 UTC do 23 v 12 UTC
Jihozápadní vítr 12 kt
Viditelnost 10 km a více
Skoro jasno ve výšce 3000 ft
Změna
od 22 v 16 UTC do 22 v 19 UTC
Severozápadní vítr 7 kt
Změna
od 23 v 08 UTC do 23 v 12 UTC
Jihojihozápadní vítr 12 kt

TAF: LCLK 221130Z 2212/2312 22012KT 9999 FEW030 BECMG 2216/2219 32007KT BECMG 2308/2312 20012KT

Stav a předpovědi počasí z více než 4 000 letišť (zprávy METAR a TAF).

Červené a žluté tečky na mapě představují dostupné meteorologické stanice.

Když kurzor umístíte na tečku, zobrazí se název stanice.

Pak kliknutím zobrazíte stav a předpověď počasí.

Chcete-li změnit mapu, kliknutím na zelené tlačítko se znaménkem +mapu přiblížíte, kliknutím na zelené tlačítko se znaménkem – mapu oddálíte a kliknutím na zelené šipky přejdete na sousední mapy.


METAR-TAF: